createdAt,value
2018-01-28T00:00:18.987Z,99.77
2018-01-28T00:02:11.934Z,99.99
2018-01-28T00:03:11.846Z,99.99
2018-01-28T00:05:04.744Z,99.99
2018-01-28T00:06:04.694Z,99.99
2018-01-28T00:07:57.634Z,99.99
2018-01-28T00:08:57.539Z,99.99
2018-01-28T00:10:50.443Z,99.99
2018-01-28T00:11:50.391Z,99.99
2018-01-28T00:13:43.290Z,99.99
2018-01-28T00:14:43.238Z,99.99
2018-01-28T00:16:36.121Z,99.99
2018-01-28T00:17:36.089Z,99.99
2018-01-28T00:19:29.041Z,99.99
2018-01-28T00:20:28.940Z,99.99
2018-01-28T00:22:21.823Z,99.99
2018-01-28T00:23:21.789Z,99.99
2018-01-28T00:25:14.691Z,99.99
2018-01-28T00:26:14.641Z,99.99
2018-01-28T00:28:07.523Z,99.99
2018-01-28T00:29:07.492Z,99.99
2018-01-28T00:31:00.393Z,99.99
2018-01-28T00:32:00.337Z,99.99
2018-01-28T00:33:53.245Z,99.99
2018-01-28T00:34:53.195Z,99.99
2018-01-28T00:36:46.094Z,99.99
2018-01-28T00:37:46.043Z,99.99
2018-01-28T00:39:38.949Z,99.99
2018-01-28T00:40:38.894Z,99.99
2018-01-28T00:42:31.773Z,99.99
2018-01-28T00:43:31.744Z,99.99
2018-01-28T00:45:24.651Z,99.99
2018-01-28T00:46:24.657Z,99.99
2018-01-28T00:48:17.545Z,99.99
2018-01-28T00:49:17.465Z,99.99
2018-01-28T00:51:10.352Z,99.99
2018-01-28T00:52:10.297Z,99.99
2018-01-28T00:54:03.178Z,99.99
2018-01-28T00:55:03.143Z,99.99
2018-01-28T00:56:56.100Z,99.99
2018-01-28T00:57:56.005Z,99.99
2018-01-28T00:59:48.874Z,99.99
2018-01-28T01:00:48.847Z,99.99
2018-01-28T01:02:41.760Z,99.99
2018-01-28T01:03:41.694Z,99.99
2018-01-28T01:05:34.581Z,99.99
2018-01-28T01:06:34.609Z,99.99
2018-01-28T01:08:27.498Z,99.99
2018-01-28T01:09:27.399Z,99.99
2018-01-28T01:11:20.349Z,99.99
2018-01-28T01:12:20.246Z,99.99
2018-01-28T01:14:13.161Z,99.99
2018-01-28T01:15:13.120Z,99.99
2018-01-28T01:17:05.980Z,99.99
2018-01-28T01:18:05.951Z,99.99
2018-01-28T01:19:58.900Z,99.99
2018-01-28T01:20:58.800Z,99.99
2018-01-28T01:22:51.748Z,99.99
2018-01-28T01:23:51.647Z,99.99
2018-01-28T01:25:44.557Z,99.99
2018-01-28T01:26:44.500Z,99.99
2018-01-28T01:28:37.453Z,99.99
2018-01-28T01:29:37.348Z,99.99
2018-01-28T01:31:30.299Z,99.99
2018-01-28T01:32:30.199Z,99.99
2018-01-28T01:34:23.151Z,99.99
2018-01-28T01:35:23.051Z,99.99
2018-01-28T01:37:16.003Z,99.99
2018-01-28T01:38:15.902Z,99.99
2018-01-28T01:40:08.852Z,99.99
2018-01-28T01:41:08.749Z,99.99
2018-01-28T01:43:01.701Z,99.99
2018-01-28T01:44:01.611Z,99.99
2018-01-28T01:45:55.580Z,99.99
2018-01-28T01:46:54.451Z,99.99
2018-01-28T01:48:47.369Z,99.99
2018-01-28T01:49:47.306Z,99.99
2018-01-28T01:51:40.186Z,99.99
2018-01-28T01:52:40.157Z,99.99
2018-01-28T01:54:33.104Z,99.99
2018-01-28T01:55:33.006Z,99.99
2018-01-28T01:57:25.955Z,99.99
2018-01-28T01:58:25.864Z,99.99
2018-01-28T02:00:18.769Z,99.99
2018-01-28T02:01:18.704Z,99.99
2018-01-28T02:03:11.588Z,99.99
2018-01-28T02:04:11.620Z,99.99
2018-01-28T02:06:04.479Z,99.99
2018-01-28T02:07:04.470Z,99.99
2018-01-28T02:08:57.293Z,99.99
2018-01-28T02:09:57.320Z,99.99
2018-01-28T02:11:50.171Z,99.99
2018-01-28T02:12:50.172Z,99.99
2018-01-28T02:14:43.086Z,99.99
2018-01-28T02:15:42.959Z,99.99
2018-01-28T02:17:35.871Z,99.99
2018-01-28T02:18:35.811Z,99.99
2018-01-28T02:20:28.694Z,99.99
2018-01-28T02:21:28.661Z,99.99
2018-01-28T02:23:21.570Z,99.99
2018-01-28T02:24:21.512Z,99.99
2018-01-28T02:26:14.397Z,99.99
2018-01-28T02:27:14.361Z,99.99
2018-01-28T02:29:07.265Z,99.99
2018-01-28T02:30:07.276Z,99.99
2018-01-28T02:32:00.115Z,99.99
2018-01-28T02:33:00.127Z,99.99
2018-01-28T02:34:52.967Z,99.99
2018-01-28T02:35:52.975Z,99.99
2018-01-28T02:37:45.791Z,99.99
2018-01-28T02:38:45.764Z,99.99
2018-01-28T02:40:38.680Z,99.99
2018-01-28T02:41:38.610Z,99.99
2018-01-28T02:43:31.495Z,99.99
2018-01-28T02:44:31.472Z,99.99
2018-01-28T02:46:24.386Z,99.99
2018-01-28T02:47:24.315Z,99.99
2018-01-28T02:49:17.196Z,99.99
2018-01-28T02:50:17.166Z,99.99
2018-01-28T02:52:10.082Z,99.99
2018-01-28T02:53:10.021Z,99.99
2018-01-28T02:55:02.897Z,99.99
2018-01-28T02:56:02.937Z,99.99
2018-01-28T02:57:55.779Z,99.99
2018-01-28T02:58:55.718Z,99.99
2018-01-28T03:00:48.597Z,99.99
2018-01-28T03:01:48.629Z,99.99
2018-01-28T03:03:41.480Z,99.99
2018-01-28T03:04:41.416Z,99.99
2018-01-28T03:06:34.370Z,99.99
2018-01-28T03:07:34.268Z,99.99
2018-01-28T03:09:27.216Z,99.99
2018-01-28T03:10:27.119Z,99.99
2018-01-28T03:12:20.066Z,99.99
2018-01-28T03:13:19.968Z,99.99
2018-01-28T03:15:12.889Z,99.99
2018-01-28T03:16:12.823Z,99.99
2018-01-28T03:18:05.711Z,99.99
2018-01-28T03:19:05.667Z,99.99
2018-01-28T03:20:58.639Z,99.99
2018-01-28T03:21:58.520Z,99.99
2018-01-28T03:23:51.469Z,99.99
2018-01-28T03:24:51.374Z,99.99
2018-01-28T03:26:44.322Z,99.99
2018-01-28T03:27:44.230Z,99.99
2018-01-28T03:29:37.101Z,99.99
2018-01-28T03:30:37.136Z,99.99
2018-01-28T03:32:29.987Z,99.99
2018-01-28T03:33:29.991Z,99.99
2018-01-28T03:35:22.976Z,99.99
2018-01-28T03:36:22.900Z,99.99
2018-01-28T03:38:15.824Z,99.99
2018-01-28T03:39:15.731Z,99.99
2018-01-28T03:41:08.678Z,99.99
2018-01-28T03:42:08.575Z,99.99
2018-01-28T03:44:01.529Z,99.99
2018-01-28T03:45:01.421Z,99.99
2018-01-28T03:46:54.379Z,99.99
2018-01-28T03:47:54.281Z,99.99
2018-01-28T03:49:47.228Z,99.99
2018-01-28T03:50:47.126Z,99.99
2018-01-28T03:52:40.013Z,99.99
2018-01-28T03:53:40.041Z,99.99
2018-01-28T03:55:32.927Z,99.99
2018-01-28T03:56:32.826Z,99.99
2018-01-28T03:58:25.777Z,99.99
2018-01-28T03:59:25.681Z,99.99
2018-01-28T04:01:18.582Z,99.99
2018-01-28T04:02:18.532Z,99.99
2018-01-28T04:04:11.414Z,99.99
2018-01-28T04:05:11.377Z,99.99
2018-01-28T04:07:04.283Z,99.99
2018-01-28T04:08:04.229Z,99.99
2018-01-28T04:09:57.135Z,99.99
2018-01-28T04:10:57.141Z,99.99
2018-01-28T04:12:50.033Z,99.99
2018-01-28T04:13:49.939Z,99.99
2018-01-28T04:15:42.841Z,99.99
2018-01-28T04:16:42.850Z,99.99
2018-01-28T04:18:35.735Z,99.99
2018-01-28T04:19:35.630Z,99.99
2018-01-28T04:21:28.583Z,99.99
2018-01-28T04:22:28.493Z,99.99
2018-01-28T04:24:21.429Z,99.99
2018-01-28T04:25:21.334Z,99.99
2018-01-28T04:27:14.249Z,99.99
2018-01-28T04:28:14.181Z,99.99
2018-01-28T04:30:07.131Z,99.99
2018-01-28T04:31:07.034Z,99.99
2018-01-28T04:32:59.940Z,99.99
2018-01-28T04:33:59.893Z,99.99
2018-01-28T04:35:52.770Z,99.99
2018-01-28T04:36:52.796Z,99.99
2018-01-28T04:38:45.639Z,99.99
2018-01-28T04:39:45.587Z,99.99
2018-01-28T04:41:38.534Z,99.99
2018-01-28T04:42:38.438Z,99.99
2018-01-28T04:44:31.383Z,99.99
2018-01-28T04:45:31.284Z,99.99
2018-01-28T04:47:24.169Z,99.99
2018-01-28T04:48:24.136Z,99.99
2018-01-28T04:50:17.052Z,99.99
2018-01-28T04:51:17.057Z,99.99
2018-01-28T04:53:09.935Z,99.99
2018-01-28T04:54:09.848Z,99.99
2018-01-28T04:56:02.753Z,99.99
2018-01-28T04:57:02.703Z,99.99
2018-01-28T04:58:55.633Z,99.99
2018-01-28T04:59:55.536Z,99.99
2018-01-28T05:01:48.443Z,99.99
2018-01-28T05:02:48.390Z,99.99
2018-01-28T05:04:41.340Z,99.99
2018-01-28T05:05:41.240Z,99.99
2018-01-28T05:07:34.190Z,99.99
2018-01-28T05:08:34.091Z,99.99
2018-01-28T05:10:26.973Z,99.99
2018-01-28T05:11:27.004Z,99.99
2018-01-28T05:13:19.854Z,99.99
2018-01-28T05:14:19.853Z,99.99
2018-01-28T05:16:12.673Z,99.99
2018-01-28T05:17:12.705Z,99.99
2018-01-28T05:19:05.549Z,99.99
2018-01-28T05:20:05.556Z,99.99
2018-01-28T05:21:58.443Z,99.99
2018-01-28T05:22:58.341Z,99.99
2018-01-28T05:24:51.295Z,99.99
2018-01-28T05:25:51.193Z,99.99
2018-01-28T05:27:44.159Z,99.99
2018-01-28T05:28:44.053Z,99.99
2018-01-28T05:30:36.960Z,99.99
2018-01-28T05:31:36.894Z,99.99
2018-01-28T05:33:29.778Z,99.99
2018-01-28T05:34:29.810Z,99.99
2018-01-28T05:36:22.693Z,99.99
2018-01-28T05:37:22.598Z,99.99
2018-01-28T05:39:15.480Z,99.99
2018-01-28T05:40:15.458Z,99.99
2018-01-28T05:42:08.398Z,99.99
2018-01-28T05:43:08.327Z,99.99
2018-01-28T05:45:01.238Z,99.99
2018-01-28T05:46:01.206Z,99.99
2018-01-28T05:47:54.200Z,99.99
2018-01-28T05:48:53.997Z,99.99
2018-01-28T05:50:48.076Z,99.99
2018-01-28T05:51:46.989Z,99.99
2018-01-28T05:53:39.957Z,99.99
2018-01-28T05:54:40.067Z,99.99
2018-01-28T05:56:32.880Z,99.99
2018-01-28T05:57:33.024Z,99.99
2018-01-28T05:59:25.864Z,99.99
2018-01-28T06:00:25.804Z,99.99
2018-01-28T06:02:18.791Z,99.99
2018-01-28T06:03:18.823Z,99.99
2018-01-28T06:05:11.918Z,99.99
2018-01-28T06:06:11.766Z,99.99
2018-01-28T06:08:04.696Z,99.99
2018-01-28T06:09:04.659Z,99.99
2018-01-28T06:10:57.827Z,99.99
2018-01-28T06:11:57.618Z,99.99
2018-01-28T06:13:50.602Z,99.99
2018-01-28T06:14:50.567Z,99.99
2018-01-28T06:16:43.586Z,99.99
2018-01-28T06:17:43.533Z,99.99
2018-01-28T06:19:36.509Z,99.99
2018-01-28T06:20:36.478Z,99.99
2018-01-28T06:22:29.484Z,99.99
2018-01-28T06:23:29.595Z,99.99
2018-01-28T06:25:22.482Z,99.99
2018-01-28T06:26:22.383Z,99.99
2018-01-28T06:28:15.398Z,99.99
2018-01-28T06:29:15.330Z,99.99
2018-01-28T06:31:08.317Z,99.99
2018-01-28T06:32:08.287Z,99.99
2018-01-28T06:34:01.297Z,99.99
2018-01-28T06:35:01.240Z,99.99
2018-01-28T06:36:54.307Z,99.99
2018-01-28T06:37:54.189Z,99.99
2018-01-28T06:39:47.352Z,99.99
2018-01-28T06:40:47.148Z,99.99
2018-01-28T06:42:40.036Z,99.99
2018-01-28T06:43:40.006Z,99.99
2018-01-28T06:45:34.080Z,99.99
2018-01-28T06:46:32.864Z,99.99
2018-01-28T06:48:25.836Z,99.99
2018-01-28T06:49:25.866Z,99.99
2018-01-28T06:51:18.858Z,99.99
2018-01-28T06:52:18.671Z,99.99
2018-01-28T06:54:11.537Z,99.99
2018-01-28T06:55:11.554Z,99.99
2018-01-28T06:57:04.425Z,99.99
2018-01-28T06:58:04.354Z,99.99
2018-01-28T06:59:57.308Z,99.99
2018-01-28T07:00:57.206Z,99.99
2018-01-28T07:02:50.118Z,99.99
2018-01-28T07:03:50.118Z,99.99
2018-01-28T07:05:42.978Z,99.99
2018-01-28T07:06:42.949Z,99.99
2018-01-28T07:08:35.854Z,99.99
2018-01-28T07:09:35.751Z,99.99
2018-01-28T07:11:28.675Z,99.99
2018-01-28T07:12:28.616Z,99.99
2018-01-28T07:14:22.043Z,99.99
2018-01-28T07:15:21.455Z,99.99
2018-01-28T07:17:14.343Z,99.99
2018-01-28T07:18:14.307Z,99.99
2018-01-28T07:20:07.221Z,99.99
2018-01-28T07:21:07.157Z,99.99
2018-01-28T07:23:00.112Z,99.99
2018-01-28T07:24:00.025Z,99.99
2018-01-28T07:25:53.014Z,99.99
2018-01-28T07:26:52.858Z,99.99
2018-01-28T07:28:45.742Z,99.99
2018-01-28T07:29:45.707Z,99.99
2018-01-28T07:31:38.662Z,99.99
2018-01-28T07:32:38.619Z,99.99
2018-01-28T07:34:31.505Z,99.99
2018-01-28T07:35:31.411Z,99.99
2018-01-28T07:37:24.362Z,99.99
2018-01-28T07:38:24.260Z,99.99
2018-01-28T07:40:17.108Z,99.99
2018-01-28T07:41:17.074Z,99.99
2018-01-28T07:43:09.975Z,99.99
2018-01-28T07:44:09.922Z,99.99
2018-01-28T07:46:02.821Z,99.99
2018-01-28T07:47:02.724Z,99.99
2018-01-28T07:48:55.574Z,99.99
2018-01-28T07:49:55.523Z,99.99
2018-01-28T07:51:48.447Z,99.99
2018-01-28T07:52:48.412Z,99.99
2018-01-28T07:54:41.322Z,99.99
2018-01-28T07:55:41.323Z,99.99
2018-01-28T07:57:34.216Z,99.99
2018-01-28T07:58:34.114Z,99.99
2018-01-28T08:00:27.062Z,99.99
2018-01-28T08:01:26.958Z,99.99
2018-01-28T08:03:19.869Z,99.99
2018-01-28T08:04:19.820Z,99.99
2018-01-28T08:06:12.711Z,99.99
2018-01-28T08:07:12.723Z,99.99
2018-01-28T08:09:05.615Z,99.99
2018-01-28T08:10:05.517Z,99.99
2018-01-28T08:11:58.466Z,99.99
2018-01-28T08:12:58.364Z,99.99
2018-01-28T08:14:51.272Z,99.99
2018-01-28T08:15:51.212Z,99.99
2018-01-28T08:17:44.173Z,99.99
2018-01-28T08:18:44.067Z,99.99
2018-01-28T08:20:37.018Z,99.99
2018-01-28T08:21:36.914Z,99.99
2018-01-28T08:23:29.801Z,99.99
2018-01-28T08:24:29.765Z,99.99
2018-01-28T08:26:22.714Z,99.99
2018-01-28T08:27:22.615Z,99.99
2018-01-28T08:29:15.569Z,99.99
2018-01-28T08:30:15.468Z,99.99
2018-01-28T08:32:08.420Z,99.99
2018-01-28T08:33:08.316Z,99.99
2018-01-28T08:35:01.273Z,99.99
2018-01-28T08:36:01.166Z,99.99
2018-01-28T08:37:54.072Z,99.99
2018-01-28T08:38:54.083Z,99.99
2018-01-28T08:40:46.900Z,99.99
2018-01-28T08:41:46.932Z,99.99
2018-01-28T08:43:39.825Z,99.99
2018-01-28T08:44:39.721Z,99.99
2018-01-28T08:46:32.803Z,99.99
2018-01-28T08:47:32.574Z,99.99
2018-01-28T08:49:25.519Z,99.99
2018-01-28T08:50:25.430Z,99.99
2018-01-28T08:52:18.375Z,99.99
2018-01-28T08:53:18.271Z,99.99
2018-01-28T08:55:12.257Z,99.99
2018-01-28T08:56:11.152Z,99.99
2018-01-28T08:58:04.513Z,99.99
2018-01-28T08:59:04.004Z,99.99
2018-01-28T09:00:56.960Z,99.99
2018-01-28T09:01:56.859Z,99.99
2018-01-28T09:03:49.987Z,99.99
2018-01-28T09:04:49.917Z,99.99
2018-01-28T09:06:42.811Z,99.99
2018-01-28T09:07:42.766Z,99.99
2018-01-28T09:09:35.705Z,99.99
2018-01-28T09:10:35.581Z,99.99
2018-01-28T09:12:28.480Z,99.99
2018-01-28T09:13:28.445Z,99.99
2018-01-28T09:15:21.334Z,99.99
2018-01-28T09:16:21.346Z,99.99
2018-01-28T09:18:14.196Z,99.99
2018-01-28T09:19:14.131Z,99.99
2018-01-28T09:21:07.012Z,99.99
2018-01-28T09:22:06.985Z,99.99
2018-01-28T09:23:59.935Z,99.99
2018-01-28T09:24:59.830Z,99.99
2018-01-28T09:26:52.755Z,99.99
2018-01-28T09:27:52.743Z,99.99
2018-01-28T09:29:45.621Z,99.99
2018-01-28T09:30:45.596Z,99.99
2018-01-28T09:32:38.434Z,99.99
2018-01-28T09:33:38.447Z,99.99
2018-01-28T09:35:31.288Z,99.99
2018-01-28T09:36:31.238Z,99.99
2018-01-28T09:38:24.229Z,99.99
2018-01-28T09:39:24.139Z,99.99
2018-01-28T09:41:17.001Z,99.99
2018-01-28T09:42:16.998Z,99.99
2018-01-28T09:44:09.885Z,99.99
2018-01-28T09:45:09.787Z,99.99
2018-01-28T09:47:02.705Z,99.99
2018-01-28T09:48:02.699Z,99.99
2018-01-28T09:49:55.584Z,99.99
2018-01-28T09:50:55.489Z,99.99
2018-01-28T09:52:48.400Z,99.99
2018-01-28T09:53:48.399Z,99.99
2018-01-28T09:55:41.220Z,99.99
2018-01-28T09:56:41.250Z,99.99
2018-01-28T09:58:34.105Z,99.99
2018-01-28T09:59:34.036Z,99.99
2018-01-28T10:01:26.942Z,99.99
2018-01-28T10:02:26.904Z,99.99
2018-01-28T10:04:19.806Z,99.99
2018-01-28T10:05:19.742Z,99.99
2018-01-28T10:07:12.621Z,99.99
2018-01-28T10:08:12.663Z,99.99
2018-01-28T10:10:05.551Z,99.99
2018-01-28T10:11:05.467Z,99.99
2018-01-28T10:12:58.348Z,99.99
2018-01-28T10:13:58.317Z,99.99
2018-01-28T10:15:51.204Z,99.99
2018-01-28T10:16:51.202Z,99.99
2018-01-28T10:18:44.030Z,99.99
2018-01-28T10:19:45.080Z,99.99
2018-01-28T10:21:37.075Z,99.99
2018-01-28T10:22:36.894Z,99.99
2018-01-28T10:24:29.794Z,99.99
2018-01-28T10:25:29.694Z,99.99
2018-01-28T10:27:22.641Z,99.99
2018-01-28T10:28:22.558Z,99.99
2018-01-28T10:30:15.509Z,99.99
2018-01-28T10:31:15.395Z,99.99
2018-01-28T10:33:08.361Z,99.99
2018-01-28T10:34:08.246Z,99.99
2018-01-28T10:36:01.193Z,99.99
2018-01-28T10:37:01.101Z,99.99
2018-01-28T10:38:54.007Z,99.99
2018-01-28T10:39:54.011Z,99.99
2018-01-28T10:41:46.841Z,99.99
2018-01-28T10:42:46.809Z,99.99
2018-01-28T10:44:39.699Z,99.99
2018-01-28T10:45:39.650Z,99.99
2018-01-28T10:47:32.693Z,99.99
2018-01-28T10:48:32.662Z,99.99
2018-01-28T10:50:25.508Z,99.99
2018-01-28T10:51:25.511Z,99.99
2018-01-28T10:53:18.338Z,99.99
2018-01-28T10:54:18.312Z,99.99
2018-01-28T10:56:11.203Z,99.99
2018-01-28T10:57:11.151Z,99.99
2018-01-28T10:59:04.033Z,99.99
2018-01-28T11:00:04.001Z,99.99
2018-01-28T11:01:57.091Z,99.99
2018-01-28T11:02:56.855Z,99.99
2018-01-28T11:04:49.802Z,99.99
2018-01-28T11:05:49.701Z,99.99
2018-01-28T11:07:42.610Z,99.99
2018-01-28T11:08:42.555Z,99.99
2018-01-28T11:10:35.440Z,99.99
2018-01-28T11:11:35.402Z,99.99
2018-01-28T11:13:28.420Z,99.99
2018-01-28T11:14:28.257Z,99.99
2018-01-28T11:16:21.138Z,99.99
2018-01-28T11:17:21.269Z,99.99
2018-01-28T11:19:14.114Z,99.99
2018-01-28T11:20:13.957Z,99.99
2018-01-28T11:22:06.923Z,99.99
2018-01-28T11:23:06.813Z,99.99
2018-01-28T11:24:59.759Z,99.99
2018-01-28T11:25:59.655Z,99.99
2018-01-28T11:27:52.605Z,99.99
2018-01-28T11:28:52.505Z,99.99
2018-01-28T11:30:45.531Z,99.99
2018-01-28T11:31:45.360Z,99.99
2018-01-28T11:33:38.236Z,99.99
2018-01-28T11:34:38.210Z,99.99
2018-01-28T11:36:31.122Z,99.99
2018-01-28T11:37:31.069Z,99.99
2018-01-28T11:39:24.008Z,99.99
2018-01-28T11:40:23.908Z,99.99
2018-01-28T11:42:16.854Z,99.99
2018-01-28T11:43:16.763Z,99.99
2018-01-28T11:45:09.709Z,99.99
2018-01-28T11:46:09.611Z,99.99
2018-01-28T11:48:02.563Z,99.99
2018-01-28T11:49:02.459Z,99.99
2018-01-28T11:50:55.348Z,99.99
2018-01-28T11:51:55.373Z,99.99
2018-01-28T11:53:48.261Z,99.99
2018-01-28T11:54:48.165Z,99.99
2018-01-28T11:56:41.112Z,99.99
2018-01-28T11:57:41.042Z,99.99
2018-01-28T11:59:33.922Z,99.99
2018-01-28T12:00:33.867Z,99.99
2018-01-28T12:02:26.748Z,99.99
2018-01-28T12:03:26.716Z,99.99
2018-01-28T12:05:19.662Z,99.99
2018-01-28T12:06:19.564Z,99.99
2018-01-28T12:08:12.546Z,99.99
2018-01-28T12:09:12.413Z,99.99
2018-01-28T12:11:05.373Z,99.99
2018-01-28T12:12:05.267Z,99.99
2018-01-28T12:13:58.149Z,99.99
2018-01-28T12:14:58.119Z,99.99
2018-01-28T12:16:51.065Z,99.99
2018-01-28T12:17:50.968Z,99.99
2018-01-28T12:19:43.911Z,99.99
2018-01-28T12:20:43.816Z,99.99
2018-01-28T12:22:36.733Z,99.99
2018-01-28T12:23:36.665Z,99.99
2018-01-28T12:25:29.551Z,99.99
2018-01-28T12:26:29.519Z,99.99
2018-01-28T12:28:22.982Z,99.99
2018-01-28T12:29:22.888Z,99.99
2018-01-28T12:31:15.823Z,99.99
2018-01-28T12:32:15.732Z,99.99
2018-01-28T12:34:08.740Z,99.99
2018-01-28T12:35:08.591Z,99.99
2018-01-28T12:37:01.528Z,99.99
2018-01-28T12:38:01.431Z,99.99
2018-01-28T12:39:54.377Z,99.99
2018-01-28T12:40:54.323Z,99.99
2018-01-28T12:42:47.162Z,99.99
2018-01-28T12:43:47.139Z,99.99
2018-01-28T12:45:40.215Z,99.99
2018-01-28T12:46:40.015Z,99.99
2018-01-28T12:48:32.865Z,99.99
2018-01-28T12:49:32.863Z,99.99
2018-01-28T12:51:25.783Z,99.99
2018-01-28T12:52:25.688Z,99.99
2018-01-28T12:54:18.563Z,99.99
2018-01-28T12:55:18.537Z,99.99
2018-01-28T12:57:11.484Z,99.99
2018-01-28T12:58:11.385Z,99.99
2018-01-28T13:00:04.266Z,99.99
2018-01-28T13:01:04.239Z,99.99
2018-01-28T13:02:58.205Z,99.99
2018-01-28T13:03:57.089Z,99.99
2018-01-28T13:05:49.966Z,99.99
2018-01-28T13:06:50.100Z,99.99
2018-01-28T13:08:42.883Z,99.99
2018-01-28T13:09:42.797Z,99.99
2018-01-28T13:11:35.674Z,99.99
2018-01-28T13:12:35.697Z,99.99
2018-01-28T13:14:28.547Z,99.99
2018-01-28T13:15:28.487Z,99.99
2018-01-28T13:17:21.435Z,99.99
2018-01-28T13:18:21.341Z,99.99
2018-01-28T13:20:14.391Z,99.99
2018-01-28T13:21:14.289Z,99.99
2018-01-28T13:23:07.178Z,99.99
2018-01-28T13:24:07.206Z,99.99
2018-01-28T13:26:00.126Z,99.99
2018-01-28T13:26:59.995Z,99.99
2018-01-28T13:28:52.875Z,99.99
2018-01-28T13:29:52.839Z,99.99
2018-01-28T13:31:45.796Z,99.99
2018-01-28T13:32:45.696Z,99.99
2018-01-28T13:34:38.575Z,99.99
2018-01-28T13:35:38.543Z,99.99
2018-01-28T13:37:31.492Z,99.99
2018-01-28T13:38:31.392Z,99.99
2018-01-28T13:40:24.274Z,99.99
2018-01-28T13:41:24.246Z,99.99
2018-01-28T13:43:17.158Z,99.99
2018-01-28T13:44:17.151Z,99.99
2018-01-28T13:46:09.979Z,99.99
2018-01-28T13:47:09.947Z,99.99
2018-01-28T13:49:02.892Z,99.99
2018-01-28T13:50:02.799Z,99.99
2018-01-28T13:51:55.750Z,99.99
2018-01-28T13:52:55.652Z,99.99
2018-01-28T13:54:48.600Z,99.99
2018-01-28T13:55:48.506Z,99.99
2018-01-28T13:57:41.381Z,99.99
2018-01-28T13:58:41.349Z,99.99
2018-01-28T14:00:34.298Z,99.99
2018-01-28T14:01:34.203Z,99.99
2018-01-28T14:03:27.148Z,99.98
2018-01-28T14:04:27.047Z,99.32
2018-01-28T14:06:19.991Z,99.13
2018-01-28T14:07:19.902Z,98.74
2018-01-28T14:09:12.782Z,99.69
2018-01-28T14:10:12.809Z,98.74
2018-01-28T14:12:05.722Z,98.36
2018-01-28T14:13:05.601Z,98.55
2018-01-28T14:14:58.486Z,98.84
2018-01-28T14:15:58.455Z,98.74
2018-01-28T14:17:51.376Z,98.65
2018-01-28T14:18:51.303Z,97.70
2018-01-28T14:20:44.254Z,99.03
2018-01-28T14:21:44.156Z,99.89
2018-01-28T14:23:37.098Z,98.36
2018-01-28T14:24:37.007Z,98.55
2018-01-28T14:26:29.883Z,98.65
2018-01-28T14:27:29.875Z,98.18
2018-01-28T14:29:22.800Z,98.18
2018-01-28T14:30:22.698Z,97.79
2018-01-28T14:32:15.587Z,98.46
2018-01-28T14:33:15.559Z,99.03
2018-01-28T14:35:08.473Z,97.89
2018-01-28T14:36:08.408Z,97.99
2018-01-28T14:38:01.283Z,97.99
2018-01-28T14:39:01.252Z,98.08
2018-01-28T14:40:54.216Z,98.65
2018-01-28T14:41:54.109Z,98.74
2018-01-28T14:43:46.982Z,98.46
2018-01-28T14:44:46.956Z,98.74
2018-01-28T14:46:39.903Z,98.27
2018-01-28T14:47:39.808Z,97.70
2018-01-28T14:49:32.755Z,98.55
2018-01-28T14:50:32.656Z,98.08
2018-01-28T14:52:25.566Z,97.70
2018-01-28T14:53:25.509Z,98.55
2018-01-28T14:55:18.390Z,98.36
2018-01-28T14:56:18.420Z,98.36
2018-01-28T14:58:11.269Z,98.08
2018-01-28T14:59:11.275Z,98.55
2018-01-28T15:01:04.089Z,98.36
2018-01-28T15:02:04.062Z,98.36
2018-01-28T15:03:56.968Z,98.65
2018-01-28T15:04:56.911Z,98.55
2018-01-28T15:06:49.854Z,98.65
2018-01-28T15:07:49.762Z,97.99
2018-01-28T15:09:42.707Z,97.79
2018-01-28T15:10:42.667Z,97.89
2018-01-28T15:12:35.528Z,96.94
2018-01-28T15:13:35.464Z,96.94
2018-01-28T15:15:28.375Z,96.94
2018-01-28T15:16:28.314Z,97.60
2018-01-28T15:18:21.192Z,97.89
2018-01-28T15:19:21.223Z,97.79
2018-01-28T15:21:14.072Z,98.36
2018-01-28T15:22:14.013Z,96.84
2018-01-28T15:24:06.958Z,97.99
2018-01-28T15:25:06.860Z,97.60
2018-01-28T15:26:59.773Z,97.89
2018-01-28T15:27:59.778Z,97.60
2018-01-28T15:29:52.658Z,97.03
2018-01-28T15:30:52.562Z,97.03
2018-01-28T15:32:45.480Z,97.31
2018-01-28T15:33:45.475Z,97.31
2018-01-28T15:35:39.387Z,96.94
2018-01-28T15:36:38.274Z,96.27
2018-01-28T15:38:31.232Z,96.17
2018-01-28T15:39:31.114Z,96.17
2018-01-28T15:41:23.995Z,95.98
2018-01-28T15:42:23.970Z,96.46
2018-01-28T15:44:16.984Z,96.27
2018-01-28T15:45:16.821Z,96.55
2018-01-28T15:47:09.697Z,96.08
2018-01-28T15:48:09.679Z,96.46
2018-01-28T15:50:02.616Z,96.75
2018-01-28T15:51:02.531Z,96.36
2018-01-28T15:52:55.508Z,96.46
2018-01-28T15:53:55.365Z,96.94
2018-01-28T15:55:48.314Z,96.08
2018-01-28T15:56:48.218Z,96.36
2018-01-28T15:58:41.122Z,95.98
2018-01-28T15:59:41.091Z,96.08
2018-01-28T16:01:34.153Z,97.22
2018-01-28T16:02:33.937Z,96.17
2018-01-28T16:04:26.797Z,96.94
2018-01-28T16:05:26.779Z,97.13
2018-01-28T16:07:19.738Z,96.46
2018-01-28T16:08:19.625Z,96.36
2018-01-28T16:10:12.503Z,96.36
2018-01-28T16:11:12.469Z,97.03
2018-01-28T16:13:05.422Z,96.55
2018-01-28T16:14:05.318Z,96.55
2018-01-28T16:15:58.208Z,97.13
2018-01-28T16:16:58.233Z,97.31
2018-01-28T16:18:51.120Z,96.94
2018-01-28T16:19:51.024Z,97.03
2018-01-28T16:21:43.904Z,97.41
2018-01-28T16:22:43.871Z,97.03
2018-01-28T16:24:36.775Z,97.22
2018-01-28T16:25:36.724Z,97.03
2018-01-28T16:27:29.600Z,96.75
2018-01-28T16:28:29.573Z,96.94
2018-01-28T16:30:22.519Z,97.22
2018-01-28T16:31:22.428Z,96.75
2018-01-28T16:33:15.302Z,97.27
2018-01-28T16:34:15.287Z,97.31
2018-01-28T16:36:08.176Z,97.22
2018-01-28T16:37:08.132Z,97.08
2018-01-28T16:39:01.006Z,97.13
2018-01-28T16:40:00.973Z,97.36
2018-01-28T16:41:53.885Z,97.13
2018-01-28T16:42:53.886Z,97.08
2018-01-28T16:44:46.709Z,97.27
2018-01-28T16:45:46.737Z,97.27
2018-01-28T16:47:39.624Z,97.94
2018-01-28T16:48:39.528Z,97.94
2018-01-28T16:50:32.411Z,97.79
2018-01-28T16:51:32.372Z,98.03
2018-01-28T16:53:25.289Z,98.03
2018-01-28T16:54:25.229Z,97.94
2018-01-28T16:56:18.110Z,98.03
2018-01-28T16:57:18.074Z,97.36
2018-01-28T16:59:11.025Z,97.94
2018-01-28T17:00:10.925Z,98.51
2018-01-28T17:02:03.811Z,98.41
2018-01-28T17:03:03.840Z,98.32
2018-01-28T17:04:56.728Z,99.08
2018-01-28T17:05:56.633Z,98.79
2018-01-28T17:07:49.510Z,99.37
2018-01-28T17:08:49.482Z,99.27
2018-01-28T17:10:42.432Z,99.94
2018-01-28T17:11:42.325Z,99.99
2018-01-28T17:13:35.278Z,99.99
2018-01-28T17:14:35.183Z,99.99
2018-01-28T17:16:28.095Z,99.99
2018-01-28T17:17:28.034Z,99.99
2018-01-28T17:19:20.915Z,99.99
2018-01-28T17:20:20.884Z,99.99
2018-01-28T17:22:13.834Z,99.99
2018-01-28T17:23:13.727Z,99.99
2018-01-28T17:25:06.613Z,99.99
2018-01-28T17:26:06.578Z,99.99
2018-01-28T17:27:59.528Z,99.99
2018-01-28T17:28:59.432Z,99.99
2018-01-28T17:30:52.316Z,99.99
2018-01-28T17:31:52.283Z,99.99
2018-01-28T17:33:45.189Z,99.99
2018-01-28T17:34:45.132Z,99.99
2018-01-28T17:36:38.092Z,99.99
2018-01-28T17:37:37.986Z,99.99
2018-01-28T17:39:30.934Z,99.99
2018-01-28T17:40:30.834Z,99.99
2018-01-28T17:42:23.718Z,99.99
2018-01-28T17:43:23.747Z,99.99
2018-01-28T17:45:16.596Z,99.99
2018-01-28T17:46:16.600Z,99.99
2018-01-28T17:48:09.416Z,99.99
2018-01-28T17:49:09.389Z,99.99
2018-01-28T17:51:02.295Z,99.99
2018-01-28T17:52:02.235Z,99.99
2018-01-28T17:53:55.171Z,99.99
2018-01-28T17:54:55.087Z,99.99
2018-01-28T17:56:48.037Z,99.99
2018-01-28T17:57:47.965Z,99.99
2018-01-28T17:59:40.888Z,99.99
2018-01-28T18:00:40.788Z,99.99
2018-01-28T18:02:33.697Z,99.99
2018-01-28T18:03:33.640Z,99.99
2018-01-28T18:05:26.522Z,99.99
2018-01-28T18:06:26.489Z,99.99
2018-01-28T18:08:19.397Z,99.99
2018-01-28T18:09:19.343Z,99.99
2018-01-28T18:11:12.290Z,99.99
2018-01-28T18:12:12.189Z,99.99
2018-01-28T18:14:05.153Z,99.99
2018-01-28T18:15:05.048Z,99.99
2018-01-28T18:16:57.924Z,99.99
2018-01-28T18:17:57.893Z,99.99
2018-01-28T18:19:50.852Z,99.99
2018-01-28T18:20:50.747Z,99.99
2018-01-28T18:22:43.692Z,99.99
2018-01-28T18:23:43.591Z,99.99
2018-01-28T18:25:36.539Z,99.99
2018-01-28T18:26:36.445Z,99.99
2018-01-28T18:28:29.395Z,99.99
2018-01-28T18:29:29.293Z,99.99
2018-01-28T18:31:22.240Z,99.99
2018-01-28T18:32:22.147Z,99.99